sensor_id;sensor_type;location;lat;lon;timestamp;P1;durP1;ratioP1;P2;durP2;ratioP2
69126;SDS011;56688;50.234;19.292;2022-12-10T00:01:34;16.30;;;9.70;;
69126;SDS011;56688;50.234;19.292;2022-12-10T00:04:02;13.80;;;9.20;;
69126;SDS011;56688;50.234;19.292;2022-12-10T00:06:31;24.70;;;11.50;;
69126;SDS011;56688;50.234;19.292;2022-12-10T00:09:01;13.70;;;8.40;;
69126;SDS011;56688;50.234;19.292;2022-12-10T00:11:31;14.20;;;8.70;;
69126;SDS011;56688;50.234;19.292;2022-12-10T00:13:59;12.90;;;8.60;;
69126;SDS011;56688;50.234;19.292;2022-12-10T00:16:27;12.60;;;8.20;;
69126;SDS011;56688;50.234;19.292;2022-12-10T00:18:54;14.20;;;8.40;;
69126;SDS011;56688;50.234;19.292;2022-12-10T00:21:24;12.20;;;7.30;;
69126;SDS011;56688;50.234;19.292;2022-12-10T00:23:52;16.70;;;10.70;;
69126;SDS011;56688;50.234;19.292;2022-12-10T00:26:21;10.70;;;7.10;;
69126;SDS011;56688;50.234;19.292;2022-12-10T00:28:50;12.80;;;8.00;;
69126;SDS011;56688;50.234;19.292;2022-12-10T00:31:19;13.70;;;6.70;;
69126;SDS011;56688;50.234;19.292;2022-12-10T00:33:48;11.70;;;7.10;;
69126;SDS011;56688;50.234;19.292;2022-12-10T00:36:17;12.50;;;7.20;;
69126;SDS011;56688;50.234;19.292;2022-12-10T00:38:46;11.70;;;6.40;;
69126;SDS011;56688;50.234;19.292;2022-12-10T00:41:14;15.00;;;6.00;;
69126;SDS011;56688;50.234;19.292;2022-12-10T00:43:42;12.40;;;6.30;;
69126;SDS011;56688;50.234;19.292;2022-12-10T00:46:10;12.20;;;6.00;;
69126;SDS011;56688;50.234;19.292;2022-12-10T00:48:39;12.90;;;7.10;;
69126;SDS011;56688;50.234;19.292;2022-12-10T00:51:09;10.60;;;6.30;;
69126;SDS011;56688;50.234;19.292;2022-12-10T00:53:39;10.30;;;5.90;;
69126;SDS011;56688;50.234;19.292;2022-12-10T00:56:07;10.20;;;6.20;;
69126;SDS011;56688;50.234;19.292;2022-12-10T00:58:36;9.20;;;5.40;;
69126;SDS011;56688;50.234;19.292;2022-12-10T01:03:54;8.70;;;6.30;;
69126;SDS011;56688;50.234;19.292;2022-12-10T01:06:24;11.90;;;6.90;;
69126;SDS011;56688;50.234;19.292;2022-12-10T01:08:56;11.10;;;7.40;;
69126;SDS011;56688;50.234;19.292;2022-12-10T01:11:30;12.40;;;7.30;;
69126;SDS011;56688;50.234;19.292;2022-12-10T01:14:00;11.30;;;6.50;;
69126;SDS011;56688;50.234;19.292;2022-12-10T01:16:27;10.20;;;6.40;;
69126;SDS011;56688;50.234;19.292;2022-12-10T01:18:55;11.70;;;6.70;;
69126;SDS011;56688;50.234;19.292;2022-12-10T01:21:23;9.70;;;6.70;;
69126;SDS011;56688;50.234;19.292;2022-12-10T01:23:52;11.50;;;6.80;;
69126;SDS011;56688;50.234;19.292;2022-12-10T01:26:26;16.20;;;8.50;;
69126;SDS011;56688;50.234;19.292;2022-12-10T01:28:55;12.80;;;8.20;;
69126;SDS011;56688;50.234;19.292;2022-12-10T01:33:53;13.80;;;8.40;;
69126;SDS011;56688;50.234;19.292;2022-12-10T01:36:22;13.80;;;7.70;;
69126;SDS011;56688;50.234;19.292;2022-12-10T01:38:51;11.30;;;6.90;;
69126;SDS011;56688;50.234;19.292;2022-12-10T01:41:20;11.70;;;7.50;;
69126;SDS011;56688;50.234;19.292;2022-12-10T01:43:58;11.30;;;7.40;;
69126;SDS011;56688;50.234;19.292;2022-12-10T01:46:28;12.20;;;7.70;;
69126;SDS011;56688;50.234;19.292;2022-12-10T01:48:57;12.20;;;7.60;;
69126;SDS011;56688;50.234;19.292;2022-12-10T01:51:26;11.40;;;7.50;;
69126;SDS011;56688;50.234;19.292;2022-12-10T01:53:56;11.30;;;7.00;;
69126;SDS011;56688;50.234;19.292;2022-12-10T01:56:23;12.00;;;7.50;;
69126;SDS011;56688;50.234;19.292;2022-12-10T01:58:51;11.60;;;7.10;;
69126;SDS011;56688;50.234;19.292;2022-12-10T02:01:26;12.30;;;7.70;;
69126;SDS011;56688;50.234;19.292;2022-12-10T02:12:18;15.20;;;9.00;;
69126;SDS011;56688;50.234;19.292;2022-12-10T02:14:56;13.40;;;8.30;;
69126;SDS011;56688;50.234;19.292;2022-12-10T02:17:32;13.10;;;8.00;;
69126;SDS011;56688;50.234;19.292;2022-12-10T02:22:54;13.80;;;8.70;;
69126;SDS011;56688;50.234;19.292;2022-12-10T02:25:30;13.60;;;8.50;;
69126;SDS011;56688;50.234;19.292;2022-12-10T02:28:07;13.60;;;8.80;;
69126;SDS011;56688;50.234;19.292;2022-12-10T02:30:42;13.00;;;8.50;;
69126;SDS011;56688;50.234;19.292;2022-12-10T02:33:11;13.40;;;8.20;;
69126;SDS011;56688;50.234;19.292;2022-12-10T02:35:40;11.80;;;7.90;;
69126;SDS011;56688;50.234;19.292;2022-12-10T02:38:13;12.50;;;8.50;;
69126;SDS011;56688;50.234;19.292;2022-12-10T02:40:46;12.50;;;8.30;;
69126;SDS011;56688;50.234;19.292;2022-12-10T02:43:17;15.70;;;8.00;;
69126;SDS011;56688;50.234;19.292;2022-12-10T02:45:45;10.40;;;7.70;;
69126;SDS011;56688;50.234;19.292;2022-12-10T02:48:12;13.50;;;8.40;;
69126;SDS011;56688;50.234;19.292;2022-12-10T02:50:41;14.30;;;8.90;;
69126;SDS011;56688;50.234;19.292;2022-12-10T02:53:08;12.60;;;8.20;;
69126;SDS011;56688;50.234;19.292;2022-12-10T02:58:28;15.60;;;8.80;;
69126;SDS011;56688;50.234;19.292;2022-12-10T03:01:07;11.20;;;8.20;;
69126;SDS011;56688;50.234;19.292;2022-12-10T03:03:38;14.30;;;8.60;;
69126;SDS011;56688;50.234;19.292;2022-12-10T03:06:16;16.00;;;10.00;;
69126;SDS011;56688;50.234;19.292;2022-12-10T03:08:50;14.80;;;9.90;;
69126;SDS011;56688;50.234;19.292;2022-12-10T03:11:21;20.30;;;12.10;;
69126;SDS011;56688;50.234;19.292;2022-12-10T03:13:58;13.90;;;8.70;;
69126;SDS011;56688;50.234;19.292;2022-12-10T03:16:33;16.80;;;11.50;;
69126;SDS011;56688;50.234;19.292;2022-12-10T03:19:04;13.50;;;9.00;;
69126;SDS011;56688;50.234;19.292;2022-12-10T03:21:34;13.70;;;8.50;;
69126;SDS011;56688;50.234;19.292;2022-12-10T03:24:07;11.30;;;7.70;;
69126;SDS011;56688;50.234;19.292;2022-12-10T03:26:36;12.00;;;7.80;;
69126;SDS011;56688;50.234;19.292;2022-12-10T03:29:07;13.70;;;8.20;;
69126;SDS011;56688;50.234;19.292;2022-12-10T03:31:36;13.50;;;7.90;;
69126;SDS011;56688;50.234;19.292;2022-12-10T03:34:05;10.90;;;8.00;;
69126;SDS011;56688;50.234;19.292;2022-12-10T03:36:34;12.10;;;8.50;;
69126;SDS011;56688;50.234;19.292;2022-12-10T03:39:02;11.70;;;8.30;;
69126;SDS011;56688;50.234;19.292;2022-12-10T03:41:29;13.10;;;9.00;;
69126;SDS011;56688;50.234;19.292;2022-12-10T03:43:56;11.90;;;8.80;;
69126;SDS011;56688;50.234;19.292;2022-12-10T03:46:25;13.40;;;9.00;;
69126;SDS011;56688;50.234;19.292;2022-12-10T03:48:54;16.40;;;9.50;;
69126;SDS011;56688;50.234;19.292;2022-12-10T03:51:22;15.70;;;10.50;;
69126;SDS011;56688;50.234;19.292;2022-12-10T03:53:49;18.70;;;10.90;;
69126;SDS011;56688;50.234;19.292;2022-12-10T03:56:16;16.80;;;10.40;;
69126;SDS011;56688;50.234;19.292;2022-12-10T03:58:45;15.30;;;10.20;;
69126;SDS011;56688;50.234;19.292;2022-12-10T04:01:12;13.80;;;9.70;;
69126;SDS011;56688;50.234;19.292;2022-12-10T04:03:40;12.50;;;8.80;;
69126;SDS011;56688;50.234;19.292;2022-12-10T04:06:10;18.20;;;11.20;;
69126;SDS011;56688;50.234;19.292;2022-12-10T04:08:39;15.60;;;9.50;;
69126;SDS011;56688;50.234;19.292;2022-12-10T04:11:07;13.30;;;8.80;;
69126;SDS011;56688;50.234;19.292;2022-12-10T04:13:36;13.90;;;9.00;;
69126;SDS011;56688;50.234;19.292;2022-12-10T04:16:19;13.30;;;8.60;;
69126;SDS011;56688;50.234;19.292;2022-12-10T04:18:56;13.40;;;9.70;;
69126;SDS011;56688;50.234;19.292;2022-12-10T04:21:27;15.00;;;9.00;;
69126;SDS011;56688;50.234;19.292;2022-12-10T04:24:10;14.30;;;9.40;;
69126;SDS011;56688;50.234;19.292;2022-12-10T04:26:54;15.30;;;10.20;;
69126;SDS011;56688;50.234;19.292;2022-12-10T04:29:23;17.20;;;10.50;;
69126;SDS011;56688;50.234;19.292;2022-12-10T04:31:52;16.60;;;10.60;;
69126;SDS011;56688;50.234;19.292;2022-12-10T04:34:20;19.70;;;12.20;;
69126;SDS011;56688;50.234;19.292;2022-12-10T04:36:48;18.50;;;11.70;;
69126;SDS011;56688;50.234;19.292;2022-12-10T04:39:16;21.20;;;12.00;;
69126;SDS011;56688;50.234;19.292;2022-12-10T04:41:44;17.30;;;10.50;;
69126;SDS011;56688;50.234;19.292;2022-12-10T04:44:12;14.80;;;10.10;;
69126;SDS011;56688;50.234;19.292;2022-12-10T04:46:39;21.00;;;12.70;;
69126;SDS011;56688;50.234;19.292;2022-12-10T04:49:06;19.70;;;11.90;;
69126;SDS011;56688;50.234;19.292;2022-12-10T04:51:33;18.10;;;11.40;;
69126;SDS011;56688;50.234;19.292;2022-12-10T04:54:01;14.90;;;9.90;;
69126;SDS011;56688;50.234;19.292;2022-12-10T04:56:28;16.00;;;10.30;;
69126;SDS011;56688;50.234;19.292;2022-12-10T04:58:55;13.60;;;9.10;;
69126;SDS011;56688;50.234;19.292;2022-12-10T05:01:23;15.20;;;9.80;;
69126;SDS011;56688;50.234;19.292;2022-12-10T05:03:50;15.90;;;10.10;;
69126;SDS011;56688;50.234;19.292;2022-12-10T05:06:18;15.40;;;9.80;;
69126;SDS011;56688;50.234;19.292;2022-12-10T05:08:47;17.70;;;10.30;;
69126;SDS011;56688;50.234;19.292;2022-12-10T05:11:20;16.20;;;10.40;;
69126;SDS011;56688;50.234;19.292;2022-12-10T05:13:52;14.60;;;9.60;;
69126;SDS011;56688;50.234;19.292;2022-12-10T05:16:20;16.90;;;10.20;;
69126;SDS011;56688;50.234;19.292;2022-12-10T05:18:49;16.30;;;10.00;;
69126;SDS011;56688;50.234;19.292;2022-12-10T05:21:17;14.70;;;9.60;;
69126;SDS011;56688;50.234;19.292;2022-12-10T05:23:46;15.40;;;9.90;;
69126;SDS011;56688;50.234;19.292;2022-12-10T05:26:16;18.00;;;10.10;;
69126;SDS011;56688;50.234;19.292;2022-12-10T05:28:46;16.60;;;10.30;;
69126;SDS011;56688;50.234;19.292;2022-12-10T05:31:15;17.60;;;11.30;;
69126;SDS011;56688;50.234;19.292;2022-12-10T05:33:45;18.20;;;10.40;;
69126;SDS011;56688;50.234;19.292;2022-12-10T05:36:13;17.00;;;11.10;;
69126;SDS011;56688;50.234;19.292;2022-12-10T05:38:42;18.00;;;10.80;;
69126;SDS011;56688;50.234;19.292;2022-12-10T05:41:11;18.20;;;11.80;;
69126;SDS011;56688;50.234;19.292;2022-12-10T05:43:40;17.40;;;10.60;;
69126;SDS011;56688;50.234;19.292;2022-12-10T05:46:10;16.50;;;10.70;;
69126;SDS011;56688;50.234;19.292;2022-12-10T05:48:39;21.10;;;12.30;;
69126;SDS011;56688;50.234;19.292;2022-12-10T05:51:07;19.20;;;12.00;;
69126;SDS011;56688;50.234;19.292;2022-12-10T05:53:35;20.60;;;12.50;;
69126;SDS011;56688;50.234;19.292;2022-12-10T05:56:04;22.90;;;13.00;;
69126;SDS011;56688;50.234;19.292;2022-12-10T05:58:33;26.90;;;14.60;;
69126;SDS011;56688;50.234;19.292;2022-12-10T06:01:05;18.50;;;13.10;;
69126;SDS011;56688;50.234;19.292;2022-12-10T06:03:34;24.50;;;15.90;;
69126;SDS011;56688;50.234;19.292;2022-12-10T06:06:01;24.00;;;16.50;;
69126;SDS011;56688;50.234;19.292;2022-12-10T06:08:29;28.50;;;17.30;;
69126;SDS011;56688;50.234;19.292;2022-12-10T06:10:55;27.00;;;16.70;;
69126;SDS011;56688;50.234;19.292;2022-12-10T06:13:24;35.90;;;22.10;;
69126;SDS011;56688;50.234;19.292;2022-12-10T06:15:51;29.80;;;20.40;;
69126;SDS011;56688;50.234;19.292;2022-12-10T06:18:18;32.00;;;20.60;;
69126;SDS011;56688;50.234;19.292;2022-12-10T06:20:44;34.70;;;21.20;;
69126;SDS011;56688;50.234;19.292;2022-12-10T06:23:13;26.70;;;16.60;;
69126;SDS011;56688;50.234;19.292;2022-12-10T06:25:40;35.50;;;19.40;;
69126;SDS011;56688;50.234;19.292;2022-12-10T06:28:07;24.90;;;16.50;;
69126;SDS011;56688;50.234;19.292;2022-12-10T06:30:34;26.50;;;16.20;;
69126;SDS011;56688;50.234;19.292;2022-12-10T06:33:01;23.20;;;15.90;;
69126;SDS011;56688;50.234;19.292;2022-12-10T06:35:28;23.90;;;15.20;;
69126;SDS011;56688;50.234;19.292;2022-12-10T06:37:55;23.60;;;14.40;;
69126;SDS011;56688;50.234;19.292;2022-12-10T06:40:22;21.60;;;13.90;;
69126;SDS011;56688;50.234;19.292;2022-12-10T06:42:50;20.40;;;11.60;;
69126;SDS011;56688;50.234;19.292;2022-12-10T06:45:18;18.30;;;10.90;;
69126;SDS011;56688;50.234;19.292;2022-12-10T06:47:44;16.50;;;9.60;;
69126;SDS011;56688;50.234;19.292;2022-12-10T06:50:12;18.50;;;10.90;;
69126;SDS011;56688;50.234;19.292;2022-12-10T06:52:38;20.20;;;10.90;;
69126;SDS011;56688;50.234;19.292;2022-12-10T06:55:05;20.00;;;10.90;;
69126;SDS011;56688;50.234;19.292;2022-12-10T06:57:32;15.10;;;8.30;;
69126;SDS011;56688;50.234;19.292;2022-12-10T06:59:59;21.60;;;11.70;;
69126;SDS011;56688;50.234;19.292;2022-12-10T07:02:26;13.90;;;8.30;;
69126;SDS011;56688;50.234;19.292;2022-12-10T07:04:53;19.00;;;11.60;;
69126;SDS011;56688;50.234;19.292;2022-12-10T07:07:22;19.00;;;11.70;;
69126;SDS011;56688;50.234;19.292;2022-12-10T07:09:49;20.20;;;10.60;;
69126;SDS011;56688;50.234;19.292;2022-12-10T07:12:16;18.40;;;10.00;;
69126;SDS011;56688;50.234;19.292;2022-12-10T07:14:43;13.90;;;8.70;;
69126;SDS011;56688;50.234;19.292;2022-12-10T07:17:09;18.30;;;11.10;;
69126;SDS011;56688;50.234;19.292;2022-12-10T07:19:36;21.40;;;12.80;;
69126;SDS011;56688;50.234;19.292;2022-12-10T07:22:03;28.40;;;16.70;;
69126;SDS011;56688;50.234;19.292;2022-12-10T07:24:30;26.90;;;14.80;;
69126;SDS011;56688;50.234;19.292;2022-12-10T07:26:56;37.10;;;20.00;;
69126;SDS011;56688;50.234;19.292;2022-12-10T07:29:23;37.30;;;19.20;;
69126;SDS011;56688;50.234;19.292;2022-12-10T07:31:50;27.80;;;16.60;;
69126;SDS011;56688;50.234;19.292;2022-12-10T07:34:17;33.20;;;20.10;;
69126;SDS011;56688;50.234;19.292;2022-12-10T07:36:44;33.10;;;20.00;;
69126;SDS011;56688;50.234;19.292;2022-12-10T07:39:10;23.40;;;15.40;;
69126;SDS011;56688;50.234;19.292;2022-12-10T07:41:47;31.50;;;18.50;;
69126;SDS011;56688;50.234;19.292;2022-12-10T07:44:18;34.90;;;20.00;;
69126;SDS011;56688;50.234;19.292;2022-12-10T07:46:48;36.40;;;20.40;;
69126;SDS011;56688;50.234;19.292;2022-12-10T07:49:16;36.50;;;19.50;;
69126;SDS011;56688;50.234;19.292;2022-12-10T07:51:44;31.50;;;19.60;;
69126;SDS011;56688;50.234;19.292;2022-12-10T07:54:12;29.70;;;16.90;;
69126;SDS011;56688;50.234;19.292;2022-12-10T07:56:39;32.90;;;19.50;;
69126;SDS011;56688;50.234;19.292;2022-12-10T07:59:06;31.00;;;18.60;;
69126;SDS011;56688;50.234;19.292;2022-12-10T08:01:33;25.70;;;16.70;;
69126;SDS011;56688;50.234;19.292;2022-12-10T08:04:01;29.80;;;17.20;;
69126;SDS011;56688;50.234;19.292;2022-12-10T08:06:28;27.40;;;16.30;;
69126;SDS011;56688;50.234;19.292;2022-12-10T08:08:57;25.50;;;13.90;;
69126;SDS011;56688;50.234;19.292;2022-12-10T08:11:25;22.70;;;13.90;;
69126;SDS011;56688;50.234;19.292;2022-12-10T08:13:53;26.60;;;13.60;;
69126;SDS011;56688;50.234;19.292;2022-12-10T08:16:24;23.10;;;13.40;;
69126;SDS011;56688;50.234;19.292;2022-12-10T08:18:54;25.50;;;13.80;;
69126;SDS011;56688;50.234;19.292;2022-12-10T08:21:22;25.60;;;13.70;;
69126;SDS011;56688;50.234;19.292;2022-12-10T08:23:50;23.30;;;13.10;;
69126;SDS011;56688;50.234;19.292;2022-12-10T08:26:18;20.80;;;12.10;;
69126;SDS011;56688;50.234;19.292;2022-12-10T08:28:48;25.10;;;13.40;;
69126;SDS011;56688;50.234;19.292;2022-12-10T08:31:16;21.40;;;12.60;;
69126;SDS011;56688;50.234;19.292;2022-12-10T08:33:44;22.20;;;13.10;;
69126;SDS011;56688;50.234;19.292;2022-12-10T08:36:12;24.70;;;14.90;;
69126;SDS011;56688;50.234;19.292;2022-12-10T08:38:41;23.60;;;13.90;;
69126;SDS011;56688;50.234;19.292;2022-12-10T08:41:10;25.60;;;14.80;;
69126;SDS011;56688;50.234;19.292;2022-12-10T08:43:39;21.80;;;13.70;;
69126;SDS011;56688;50.234;19.292;2022-12-10T08:46:07;19.60;;;11.90;;
69126;SDS011;56688;50.234;19.292;2022-12-10T08:48:34;17.20;;;11.20;;
69126;SDS011;56688;50.234;19.292;2022-12-10T08:51:02;17.30;;;11.00;;
69126;SDS011;56688;50.234;19.292;2022-12-10T08:53:30;19.60;;;12.20;;
69126;SDS011;56688;50.234;19.292;2022-12-10T08:55:58;20.00;;;12.80;;
69126;SDS011;56688;50.234;19.292;2022-12-10T08:58:25;17.30;;;12.00;;
69126;SDS011;56688;50.234;19.292;2022-12-10T09:00:51;22.50;;;14.40;;
69126;SDS011;56688;50.234;19.292;2022-12-10T09:03:18;18.60;;;11.50;;
69126;SDS011;56688;50.234;19.292;2022-12-10T09:05:45;16.00;;;10.80;;
69126;SDS011;56688;50.234;19.292;2022-12-10T09:08:13;16.80;;;10.60;;
69126;SDS011;56688;50.234;19.292;2022-12-10T09:10:40;18.50;;;11.70;;
69126;SDS011;56688;50.234;19.292;2022-12-10T09:13:07;19.10;;;13.30;;
69126;SDS011;56688;50.234;19.292;2022-12-10T09:15:34;26.40;;;17.50;;
69126;SDS011;56688;50.234;19.292;2022-12-10T09:18:02;39.10;;;21.60;;
69126;SDS011;56688;50.234;19.292;2022-12-10T09:20:29;44.40;;;23.90;;
69126;SDS011;56688;50.234;19.292;2022-12-10T09:22:56;47.70;;;25.40;;
69126;SDS011;56688;50.234;19.292;2022-12-10T09:25:23;37.00;;;22.20;;
69126;SDS011;56688;50.234;19.292;2022-12-10T09:27:49;19.40;;;13.10;;
69126;SDS011;56688;50.234;19.292;2022-12-10T09:30:16;23.00;;;12.80;;
69126;SDS011;56688;50.234;19.292;2022-12-10T09:32:43;30.60;;;16.10;;
69126;SDS011;56688;50.234;19.292;2022-12-10T09:35:10;21.20;;;13.60;;
69126;SDS011;56688;50.234;19.292;2022-12-10T09:37:37;19.60;;;11.90;;
69126;SDS011;56688;50.234;19.292;2022-12-10T09:40:04;24.50;;;16.50;;
69126;SDS011;56688;50.234;19.292;2022-12-10T09:53:20;32.90;;;20.60;;
69126;SDS011;56688;50.234;19.292;2022-12-10T09:55:47;29.90;;;17.80;;
69126;SDS011;56688;50.234;19.292;2022-12-10T09:58:17;36.10;;;20.50;;
69126;SDS011;56688;50.234;19.292;2022-12-10T10:03:22;31.30;;;17.30;;
69126;SDS011;56688;50.234;19.292;2022-12-10T10:05:50;45.00;;;25.20;;
69126;SDS011;56688;50.234;19.292;2022-12-10T10:08:23;34.90;;;18.70;;
69126;SDS011;56688;50.234;19.292;2022-12-10T10:10:52;27.50;;;16.50;;
69126;SDS011;56688;50.234;19.292;2022-12-10T10:13:28;32.90;;;19.80;;
69126;SDS011;56688;50.234;19.292;2022-12-10T10:18:54;54.70;;;29.60;;
69126;SDS011;56688;50.234;19.292;2022-12-10T10:21:23;42.00;;;24.50;;
69126;SDS011;56688;50.234;19.292;2022-12-10T10:23:52;41.60;;;22.90;;
69126;SDS011;56688;50.234;19.292;2022-12-10T10:26:20;36.50;;;18.70;;
69126;SDS011;56688;50.234;19.292;2022-12-10T10:28:47;33.90;;;17.30;;
69126;SDS011;56688;50.234;19.292;2022-12-10T10:31:19;38.60;;;17.80;;
69126;SDS011;56688;50.234;19.292;2022-12-10T10:33:50;35.70;;;18.20;;
69126;SDS011;56688;50.234;19.292;2022-12-10T10:36:23;31.70;;;15.90;;
69126;SDS011;56688;50.234;19.292;2022-12-10T10:38:52;44.00;;;20.00;;
69126;SDS011;56688;50.234;19.292;2022-12-10T10:41:19;26.30;;;14.80;;
69126;SDS011;56688;50.234;19.292;2022-12-10T10:43:46;32.60;;;17.30;;
69126;SDS011;56688;50.234;19.292;2022-12-10T10:46:21;32.50;;;18.20;;
69126;SDS011;56688;50.234;19.292;2022-12-10T10:48:49;39.00;;;21.20;;
69126;SDS011;56688;50.234;19.292;2022-12-10T10:51:19;37.70;;;20.70;;
69126;SDS011;56688;50.234;19.292;2022-12-10T10:53:51;32.80;;;16.50;;
69126;SDS011;56688;50.234;19.292;2022-12-10T10:56:23;31.00;;;16.70;;
69126;SDS011;56688;50.234;19.292;2022-12-10T11:01:19;34.20;;;17.20;;
69126;SDS011;56688;50.234;19.292;2022-12-10T11:03:49;32.40;;;16.90;;
69126;SDS011;56688;50.234;19.292;2022-12-10T11:06:21;39.10;;;19.90;;
69126;SDS011;56688;50.234;19.292;2022-12-10T11:08:48;35.70;;;17.30;;
69126;SDS011;56688;50.234;19.292;2022-12-10T11:11:34;36.00;;;19.10;;
69126;SDS011;56688;50.234;19.292;2022-12-10T11:16:51;39.00;;;20.90;;
69126;SDS011;56688;50.234;19.292;2022-12-10T11:19:27;40.60;;;20.50;;
69126;SDS011;56688;50.234;19.292;2022-12-10T11:21:54;36.90;;;16.60;;
69126;SDS011;56688;50.234;19.292;2022-12-10T11:24:21;38.50;;;17.70;;
69126;SDS011;56688;50.234;19.292;2022-12-10T11:26:52;31.80;;;15.70;;
69126;SDS011;56688;50.234;19.292;2022-12-10T11:29:31;38.40;;;17.10;;
69126;SDS011;56688;50.234;19.292;2022-12-10T11:40:28;39.80;;;18.60;;
69126;SDS011;56688;50.234;19.292;2022-12-10T11:57:16;39.80;;;18.10;;
69126;SDS011;56688;50.234;19.292;2022-12-10T11:59:49;51.30;;;25.40;;
69126;SDS011;56688;50.234;19.292;2022-12-10T12:05:35;42.70;;;20.20;;
69126;SDS011;56688;50.234;19.292;2022-12-10T12:13:36;52.10;;;23.30;;
69126;SDS011;56688;50.234;19.292;2022-12-10T12:16:13;51.00;;;21.00;;
69126;SDS011;56688;50.234;19.292;2022-12-10T12:18:47;59.20;;;26.80;;
69126;SDS011;56688;50.234;19.292;2022-12-10T12:21:32;50.60;;;22.70;;
69126;SDS011;56688;50.234;19.292;2022-12-10T12:26:50;43.20;;;20.70;;
69126;SDS011;56688;50.234;19.292;2022-12-10T12:29:26;44.20;;;19.40;;
69126;SDS011;56688;50.234;19.292;2022-12-10T12:32:04;48.90;;;21.50;;
69126;SDS011;56688;50.234;19.292;2022-12-10T12:34:46;45.90;;;21.20;;
69126;SDS011;56688;50.234;19.292;2022-12-10T12:37:32;59.10;;;25.60;;
69126;SDS011;56688;50.234;19.292;2022-12-10T12:40:20;48.90;;;21.80;;
69126;SDS011;56688;50.234;19.292;2022-12-10T12:43:02;51.20;;;24.50;;
69126;SDS011;56688;50.234;19.292;2022-12-10T12:45:32;51.80;;;24.90;;
69126;SDS011;56688;50.234;19.292;2022-12-10T12:53:18;54.10;;;28.00;;
69126;SDS011;56688;50.234;19.292;2022-12-10T13:04:08;48.90;;;21.10;;
69126;SDS011;56688;50.234;19.292;2022-12-10T13:06:35;59.80;;;26.40;;
69126;SDS011;56688;50.234;19.292;2022-12-10T13:11:41;50.10;;;20.90;;
69126;SDS011;56688;50.234;19.292;2022-12-10T13:34:41;71.30;;;28.10;;
69126;SDS011;56688;50.234;19.292;2022-12-10T13:37:18;52.20;;;21.40;;
69126;SDS011;56688;50.234;19.292;2022-12-10T13:40:12;61.90;;;25.80;;
69126;SDS011;56688;50.234;19.292;2022-12-10T13:42:43;64.10;;;24.80;;
69126;SDS011;56688;50.234;19.292;2022-12-10T13:45:29;62.80;;;24.90;;
69126;SDS011;56688;50.234;19.292;2022-12-10T13:50:42;50.40;;;21.00;;
69126;SDS011;56688;50.234;19.292;2022-12-10T14:06:50;37.50;;;16.20;;
69126;SDS011;56688;50.234;19.292;2022-12-10T14:09:21;33.60;;;15.80;;
69126;SDS011;56688;50.234;19.292;2022-12-10T14:11:56;35.10;;;17.00;;
69126;SDS011;56688;50.234;19.292;2022-12-10T14:14:34;39.10;;;17.10;;
69126;SDS011;56688;50.234;19.292;2022-12-10T14:17:06;59.60;;;25.60;;
69126;SDS011;56688;50.234;19.292;2022-12-10T14:22:06;74.60;;;33.70;;
69126;SDS011;56688;50.234;19.292;2022-12-10T14:24:35;74.80;;;35.60;;
69126;SDS011;56688;50.234;19.292;2022-12-10T14:29:52;85.50;;;36.90;;
69126;SDS011;56688;50.234;19.292;2022-12-10T14:32:33;67.20;;;32.20;;
69126;SDS011;56688;50.234;19.292;2022-12-10T14:35:03;93.80;;;38.10;;
69126;SDS011;56688;50.234;19.292;2022-12-10T14:37:35;85.60;;;37.40;;
69126;SDS011;56688;50.234;19.292;2022-12-10T14:40:06;93.20;;;40.20;;
69126;SDS011;56688;50.234;19.292;2022-12-10T14:42:37;77.10;;;32.60;;
69126;SDS011;56688;50.234;19.292;2022-12-10T14:45:05;77.90;;;33.00;;
69126;SDS011;56688;50.234;19.292;2022-12-10T14:47:36;67.50;;;30.90;;
69126;SDS011;56688;50.234;19.292;2022-12-10T14:50:14;79.20;;;33.80;;
69126;SDS011;56688;50.234;19.292;2022-12-10T14:52:43;90.50;;;40.70;;
69126;SDS011;56688;50.234;19.292;2022-12-10T14:55:16;100.10;;;47.70;;
69126;SDS011;56688;50.234;19.292;2022-12-10T14:57:48;90.60;;;38.30;;
69126;SDS011;56688;50.234;19.292;2022-12-10T15:02:48;105.00;;;44.30;;
69126;SDS011;56688;50.234;19.292;2022-12-10T15:05:23;55.80;;;24.60;;
69126;SDS011;56688;50.234;19.292;2022-12-10T15:07:54;66.30;;;28.40;;
69126;SDS011;56688;50.234;19.292;2022-12-10T15:15:56;63.50;;;28.80;;
69126;SDS011;56688;50.234;19.292;2022-12-10T15:18:31;63.60;;;27.50;;
69126;SDS011;56688;50.234;19.292;2022-12-10T15:21:04;57.50;;;25.30;;
69126;SDS011;56688;50.234;19.292;2022-12-10T15:24:06;46.20;;;20.00;;
69126;SDS011;56688;50.234;19.292;2022-12-10T15:26:36;62.80;;;27.60;;
69126;SDS011;56688;50.234;19.292;2022-12-10T15:31:54;87.70;;;37.80;;
69126;SDS011;56688;50.234;19.292;2022-12-10T15:34:25;72.80;;;33.70;;
69126;SDS011;56688;50.234;19.292;2022-12-10T15:36:55;64.70;;;29.00;;
69126;SDS011;56688;50.234;19.292;2022-12-10T15:39:28;50.90;;;22.70;;
69126;SDS011;56688;50.234;19.292;2022-12-10T15:41:58;117.10;;;49.40;;
69126;SDS011;56688;50.234;19.292;2022-12-10T15:49:24;63.40;;;30.90;;
69126;SDS011;56688;50.234;19.292;2022-12-10T15:51:51;54.10;;;25.80;;
69126;SDS011;56688;50.234;19.292;2022-12-10T15:56:49;46.80;;;21.30;;
69126;SDS011;56688;50.234;19.292;2022-12-10T15:59:16;51.80;;;22.00;;
69126;SDS011;56688;50.234;19.292;2022-12-10T16:01:42;56.30;;;26.90;;
69126;SDS011;56688;50.234;19.292;2022-12-10T16:04:09;45.40;;;22.30;;
69126;SDS011;56688;50.234;19.292;2022-12-10T16:06:36;48.00;;;22.60;;
69126;SDS011;56688;50.234;19.292;2022-12-10T16:09:04;51.90;;;25.20;;
69126;SDS011;56688;50.234;19.292;2022-12-10T16:11:30;43.50;;;18.10;;
69126;SDS011;56688;50.234;19.292;2022-12-10T16:13:57;50.50;;;21.20;;
69126;SDS011;56688;50.234;19.292;2022-12-10T16:16:24;56.70;;;26.70;;
69126;SDS011;56688;50.234;19.292;2022-12-10T16:18:51;50.90;;;24.80;;
69126;SDS011;56688;50.234;19.292;2022-12-10T16:21:18;54.90;;;27.20;;
69126;SDS011;56688;50.234;19.292;2022-12-10T16:23:45;55.80;;;24.70;;
69126;SDS011;56688;50.234;19.292;2022-12-10T16:26:15;56.00;;;25.60;;
69126;SDS011;56688;50.234;19.292;2022-12-10T16:28:45;54.70;;;25.70;;
69126;SDS011;56688;50.234;19.292;2022-12-10T16:31:15;47.60;;;20.50;;
69126;SDS011;56688;50.234;19.292;2022-12-10T16:33:45;107.10;;;42.40;;
69126;SDS011;56688;50.234;19.292;2022-12-10T16:36:13;107.80;;;42.70;;
69126;SDS011;56688;50.234;19.292;2022-12-10T16:38:40;65.90;;;27.10;;
69126;SDS011;56688;50.234;19.292;2022-12-10T16:41:13;101.60;;;36.90;;
69126;SDS011;56688;50.234;19.292;2022-12-10T16:43:42;70.90;;;26.60;;
69126;SDS011;56688;50.234;19.292;2022-12-10T16:46:10;65.10;;;27.50;;
69126;SDS011;56688;50.234;19.292;2022-12-10T16:48:38;61.00;;;23.40;;
69126;SDS011;56688;50.234;19.292;2022-12-10T16:51:08;61.60;;;23.10;;
69126;SDS011;56688;50.234;19.292;2022-12-10T16:53:41;49.30;;;20.40;;
69126;SDS011;56688;50.234;19.292;2022-12-10T16:56:12;33.20;;;15.30;;
69126;SDS011;56688;50.234;19.292;2022-12-10T16:58:41;29.30;;;14.30;;
69126;SDS011;56688;50.234;19.292;2022-12-10T17:01:17;35.50;;;15.90;;